<?xml version="1.0" encoding="UTF-8" standalone="no" ?>
<gpx xmlns="http://www.topografix.com/GPX/1/1" xmlns:xsi="http://www.w3.org/2001/XMLSchema-instance" xsi:schemaLocation="http://www.topografix.com/GPX/1/1 http://www.topografix.com/GPX/1/1/gpx.xsd" version="1.1" creator="VisuGPX - https://www.visugpx.com">
  <metadata>
    <name>Rando 7 - Oppidum du Larzac</name>
    <desc><![CDATA[Rando 7 - Oppidum du Larzac]]></desc>
  </metadata>
  <trk>
    <name><![CDATA[FOOTN7]]></name>
    <trkseg>
      <trkpt lat="44.0826" lon="3.1235">
        <ele>776.6</ele>
        <time>2012-05-03T13:02:12Z</time>
      </trkpt>
      <trkpt lat="44.08268" lon="3.12347">
        <ele>778.8</ele>
        <time>2012-05-03T13:02:48Z</time>
      </trkpt>
      <trkpt lat="44.08269" lon="3.12347">
        <ele>778.6</ele>
        <time>2012-05-03T13:02:49Z</time>
      </trkpt>
      <trkpt lat="44.08285" lon="3.12346">
        <ele>780.2</ele>
        <time>2012-05-03T13:03:05Z</time>
      </trkpt>
      <trkpt lat="44.08293" lon="3.12345">
        <ele>782.9</ele>
        <time>2012-05-03T13:03:13Z</time>
      </trkpt>
      <trkpt lat="44.08301" lon="3.12346">
        <ele>784</ele>
        <time>2012-05-03T13:03:22Z</time>
      </trkpt>
      <trkpt lat="44.0831" lon="3.12344">
        <ele>785.3</ele>
        <time>2012-05-03T13:03:48Z</time>
      </trkpt>
      <trkpt lat="44.08318" lon="3.12345">
        <ele>778.7</ele>
        <time>2012-05-03T13:06:12Z</time>
      </trkpt>
      <trkpt lat="44.08319" lon="3.12345">
        <ele>778.8</ele>
        <time>2012-05-03T13:06:13Z</time>
      </trkpt>
      <trkpt lat="44.08335" lon="3.12347">
        <ele>778.6</ele>
        <time>2012-05-03T13:06:27Z</time>
      </trkpt>
      <trkpt lat="44.08343" lon="3.12353">
        <ele>780.2</ele>
        <time>2012-05-03T13:06:35Z</time>
      </trkpt>
      <trkpt lat="44.0835" lon="3.1236">
        <ele>781.1</ele>
        <time>2012-05-03T13:06:42Z</time>
      </trkpt>
      <trkpt lat="44.08357" lon="3.12366">
        <ele>781.6</ele>
        <time>2012-05-03T13:06:48Z</time>
      </trkpt>
      <trkpt lat="44.08363" lon="3.12373">
        <ele>781.5</ele>
        <time>2012-05-03T13:06:54Z</time>
      </trkpt>
      <trkpt lat="44.08369" lon="3.12381">
        <ele>782.1</ele>
        <time>2012-05-03T13:07:00Z</time>
      </trkpt>
      <trkpt lat="44.08374" lon="3.1239">
        <ele>783</ele>
        <time>2012-05-03T13:07:06Z</time>
      </trkpt>
      <trkpt lat="44.08381" lon="3.12399">
        <ele>784</ele>
        <time>2012-05-03T13:07:13Z</time>
      </trkpt>
      <trkpt lat="44.08381" lon="3.124">
        <ele>783.9</ele>
        <time>2012-05-03T13:07:14Z</time>
      </trkpt>
      <trkpt lat="44.08393" lon="3.12415">
        <ele>785.3</ele>
        <time>2012-05-03T13:07:32Z</time>
      </trkpt>
      <trkpt lat="44.08398" lon="3.12422">
        <ele>784.9</ele>
        <time>2012-05-03T13:07:38Z</time>
      </trkpt>
      <trkpt lat="44.08402" lon="3.12432">
        <ele>783.7</ele>
        <time>2012-05-03T13:07:44Z</time>
      </trkpt>
      <trkpt lat="44.08409" lon="3.1244">
        <ele>783.9</ele>
        <time>2012-05-03T13:07:55Z</time>
      </trkpt>
      <trkpt lat="44.08416" lon="3.12447">
        <ele>783.6</ele>
        <time>2012-05-03T13:08:02Z</time>
      </trkpt>
      <trkpt lat="44.08422" lon="3.12455">
        <ele>783.4</ele>
        <time>2012-05-03T13:08:08Z</time>
      </trkpt>
      <trkpt lat="44.08428" lon="3.12463">
        <ele>781.2</ele>
        <time>2012-05-03T13:08:14Z</time>
      </trkpt>
      <trkpt lat="44.08428" lon="3.12465">
        <ele>781.2</ele>
        <time>2012-05-03T13:08:15Z</time>
      </trkpt>
      <trkpt lat="44.08439" lon="3.1248">
        <ele>779.3</ele>
        <time>2012-05-03T13:08:27Z</time>
      </trkpt>
      <trkpt lat="44.08446" lon="3.12487">
        <ele>780.8</ele>
        <time>2012-05-03T13:08:33Z</time>
      </trkpt>
      <trkpt lat="44.08454" lon="3.12491">
        <ele>780.2</ele>
        <time>2012-05-03T13:08:39Z</time>
      </trkpt>
      <trkpt lat="44.08462" lon="3.12495">
        <ele>781.7</ele>
        <time>2012-05-03T13:08:46Z</time>
      </trkpt>
      <trkpt lat="44.0847" lon="3.12498">
        <ele>781.7</ele>
        <time>2012-05-03T13:08:52Z</time>
      </trkpt>
      <trkpt lat="44.08478" lon="3.12502">
        <ele>781.6</ele>
        <time>2012-05-03T13:08:58Z</time>
      </trkpt>
      <trkpt lat="44.08486" lon="3.12508">
        <ele>782</ele>
        <time>2012-05-03T13:09:04Z</time>
      </trkpt>
      <trkpt lat="44.08493" lon="3.12514">
        <ele>781.5</ele>
        <time>2012-05-03T13:09:10Z</time>
      </trkpt>
      <trkpt lat="44.08501" lon="3.1252">
        <ele>781.1</ele>
        <time>2012-05-03T13:09:16Z</time>
      </trkpt>
      <trkpt lat="44.08502" lon="3.12521">
        <ele>781</ele>
        <time>2012-05-03T13:09:17Z</time>
      </trkpt>
      <trkpt lat="44.08517" lon="3.1253">
        <ele>781.7</ele>
        <time>2012-05-03T13:09:28Z</time>
      </trkpt>
      <trkpt lat="44.08524" lon="3.12534">
        <ele>781.3</ele>
        <time>2012-05-03T13:09:34Z</time>
      </trkpt>
      <trkpt lat="44.08532" lon="3.12535">
        <ele>781.7</ele>
        <time>2012-05-03T13:09:40Z</time>
      </trkpt>
      <trkpt lat="44.0854" lon="3.12535">
        <ele>781.5</ele>
        <time>2012-05-03T13:09:46Z</time>
      </trkpt>
      <trkpt lat="44.08548" lon="3.12536">
        <ele>781.7</ele>
        <time>2012-05-03T13:09:52Z</time>
      </trkpt>
      <trkpt lat="44.08556" lon="3.12538">
        <ele>780.3</ele>
        <time>2012-05-03T13:09:58Z</time>
      </trkpt>
      <trkpt lat="44.08564" lon="3.1254">
        <ele>780.2</ele>
        <time>2012-05-03T13:10:04Z</time>
      </trkpt>
      <trkpt lat="44.08572" lon="3.12539">
        <ele>779.8</ele>
        <time>2012-05-03T13:10:10Z</time>
      </trkpt>
      <trkpt lat="44.0858" lon="3.12536">
        <ele>780</ele>
        <time>2012-05-03T13:10:17Z</time>
      </trkpt>
      <trkpt lat="44.08581" lon="3.12535">
        <ele>779.9</ele>
        <time>2012-05-03T13:10:18Z</time>
      </trkpt>
      <trkpt lat="44.08595" lon="3.12527">
        <ele>780.4</ele>
        <time>2012-05-03T13:10:29Z</time>
      </trkpt>
      <trkpt lat="44.08603" lon="3.12524">
        <ele>780.9</ele>
        <time>2012-05-03T13:10:35Z</time>
      </trkpt>
      <trkpt lat="44.0861" lon="3.1252">
        <ele>781.5</ele>
        <time>2012-05-03T13:10:41Z</time>
      </trkpt>
      <trkpt lat="44.08618" lon="3.12517">
        <ele>782.1</ele>
        <time>2012-05-03T13:10:47Z</time>
      </trkpt>
      <trkpt lat="44.08627" lon="3.12514">
        <ele>782.7</ele>
        <time>2012-05-03T13:10:54Z</time>
      </trkpt>
      <trkpt lat="44.08635" lon="3.12511">
        <ele>783.8</ele>
        <time>2012-05-03T13:11:01Z</time>
      </trkpt>
      <trkpt lat="44.08644" lon="3.12506">
        <ele>784.6</ele>
        <time>2012-05-03T13:11:08Z</time>
      </trkpt>
      <trkpt lat="44.08651" lon="3.12502">
        <ele>784.5</ele>
        <time>2012-05-03T13:11:14Z</time>
      </trkpt>
      <trkpt lat="44.08658" lon="3.12497">
        <ele>785.3</ele>
        <time>2012-05-03T13:11:20Z</time>
      </trkpt>
      <trkpt lat="44.08659" lon="3.12496">
        <ele>785.5</ele>
        <time>2012-05-03T13:11:21Z</time>
      </trkpt>
      <trkpt lat="44.08673" lon="3.12485">
        <ele>787</ele>
        <time>2012-05-03T13:11:34Z</time>
      </trkpt>
      <trkpt lat="44.08681" lon="3.1248">
        <ele>786.8</ele>
        <time>2012-05-03T13:11:42Z</time>
      </trkpt>
      <trkpt lat="44.08689" lon="3.12475">
        <ele>788.5</ele>
        <time>2012-05-03T13:11:49Z</time>
      </trkpt>
      <trkpt lat="44.08697" lon="3.1247">
        <ele>790.4</ele>
        <time>2012-05-03T13:11:56Z</time>
      </trkpt>
      <trkpt lat="44.08705" lon="3.12466">
        <ele>790.4</ele>
        <time>2012-05-03T13:12:02Z</time>
      </trkpt>
      <trkpt lat="44.08713" lon="3.12464">
        <ele>790.6</ele>
        <time>2012-05-03T13:12:08Z</time>
      </trkpt>
      <trkpt lat="44.08721" lon="3.12463">
        <ele>790.4</ele>
        <time>2012-05-03T13:12:14Z</time>
      </trkpt>
      <trkpt lat="44.08729" lon="3.12461">
        <ele>790</ele>
        <time>2012-05-03T13:12:20Z</time>
      </trkpt>
      <trkpt lat="44.08738" lon="3.1246">
        <ele>789.9</ele>
        <time>2012-05-03T13:12:26Z</time>
      </trkpt>
      <trkpt lat="44.0874" lon="3.1246">
        <ele>790.2</ele>
        <time>2012-05-03T13:12:27Z</time>
      </trkpt>
      <trkpt lat="44.08755" lon="3.12462">
        <ele>790.8</ele>
        <time>2012-05-03T13:12:38Z</time>
      </trkpt>
      <trkpt lat="44.08764" lon="3.12461">
        <ele>791</ele>
        <time>2012-05-03T13:12:44Z</time>
      </trkpt>
      <trkpt lat="44.08772" lon="3.12459">
        <ele>791.1</ele>
        <time>2012-05-03T13:12:50Z</time>
      </trkpt>
      <trkpt lat="44.0878" lon="3.12455">
        <ele>791.1</ele>
        <time>2012-05-03T13:12:56Z</time>
      </trkpt>
      <trkpt lat="44.08787" lon="3.1245">
        <ele>792.5</ele>
        <time>2012-05-03T13:13:03Z</time>
      </trkpt>
      <trkpt lat="44.08795" lon="3.12445">
        <ele>792.3</ele>
        <time>2012-05-03T13:13:09Z</time>
      </trkpt>
      <trkpt lat="44.08802" lon="3.1244">
        <ele>792.2</ele>
        <time>2012-05-03T13:13:15Z</time>
      </trkpt>
      <trkpt lat="44.08809" lon="3.12435">
        <ele>791.7</ele>
        <time>2012-05-03T13:13:21Z</time>
      </trkpt>
      <trkpt lat="44.08817" lon="3.12429">
        <ele>792.5</ele>
        <time>2012-05-03T13:13:27Z</time>
      </trkpt>
      <trkpt lat="44.08818" lon="3.12428">
        <ele>792.6</ele>
        <time>2012-05-03T13:13:28Z</time>
      </trkpt>
      <trkpt lat="44.08832" lon="3.1242">
        <ele>792.5</ele>
        <time>2012-05-03T13:13:39Z</time>
      </trkpt>
      <trkpt lat="44.08839" lon="3.12416">
        <ele>793.1</ele>
        <time>2012-05-03T13:13:45Z</time>
      </trkpt>
      <trkpt lat="44.08848" lon="3.12413">
        <ele>792.8</ele>
        <time>2012-05-03T13:13:51Z</time>
      </trkpt>
      <trkpt lat="44.08855" lon="3.12408">
        <ele>792.6</ele>
        <time>2012-05-03T13:13:57Z</time>
      </trkpt>
      <trkpt lat="44.08862" lon="3.12401">
        <ele>792.7</ele>
        <time>2012-05-03T13:14:03Z</time>
      </trkpt>
      <trkpt lat="44.08867" lon="3.12393">
        <ele>792.3</ele>
        <time>2012-05-03T13:14:09Z</time>
      </trkpt>
      <trkpt lat="44.08873" lon="3.12385">
        <ele>793</ele>
        <time>2012-05-03T13:14:15Z</time>
      </trkpt>
      <trkpt lat="44.0888" lon="3.12378">
        <ele>794.2</ele>
        <time>2012-05-03T13:14:21Z</time>
      </trkpt>
      <trkpt lat="44.08887" lon="3.12371">
        <ele>794.4</ele>
        <time>2012-05-03T13:14:27Z</time>
      </trkpt>
      <trkpt lat="44.08893" lon="3.12363">
        <ele>795.1</ele>
        <time>2012-05-03T13:14:33Z</time>
      </trkpt>
      <trkpt lat="44.08894" lon="3.12362">
        <ele>795.3</ele>
        <time>2012-05-03T13:14:34Z</time>
      </trkpt>
      <trkpt lat="44.08905" lon="3.12347">
        <ele>795.1</ele>
        <time>2012-05-03T13:14:45Z</time>
      </trkpt>
      <trkpt lat="44.08911" lon="3.12338">
        <ele>795.3</ele>
        <time>2012-05-03T13:14:51Z</time>
      </trkpt>
      <trkpt lat="44.08917" lon="3.1233">
        <ele>796.4</ele>
        <time>2012-05-03T13:14:57Z</time>
      </trkpt>
      <trkpt lat="44.08923" lon="3.12321">
        <ele>796.8</ele>
        <time>2012-05-03T13:15:03Z</time>
      </trkpt>
      <trkpt lat="44.08928" lon="3.12312">
        <ele>796.7</ele>
        <time>2012-05-03T13:15:09Z</time>
      </trkpt>
      <trkpt lat="44.08933" lon="3.12302">
        <ele>796.7</ele>
        <time>2012-05-03T13:15:15Z</time>
      </trkpt>
      <trkpt lat="44.08936" lon="3.1229">
        <ele>797.4</ele>
        <time>2012-05-03T13:15:21Z</time>
      </trkpt>
      <trkpt lat="44.08937" lon="3.12279">
        <ele>797.3</ele>
        <time>2012-05-03T13:15:27Z</time>
      </trkpt>
      <trkpt lat="44.08937" lon="3.12268">
        <ele>796.1</ele>
        <time>2012-05-03T13:15:33Z</time>
      </trkpt>
      <trkpt lat="44.08935" lon="3.12256">
        <ele>795.6</ele>
        <time>2012-05-03T13:15:39Z</time>
      </trkpt>
      <trkpt lat="44.08935" lon="3.12254">
        <ele>795.3</ele>
        <time>2012-05-03T13:15:40Z</time>
      </trkpt>
      <trkpt lat="44.08934" lon="3.12234">
        <ele>794.9</ele>
        <time>2012-05-03T13:15:51Z</time>
      </trkpt>
      <trkpt lat="44.08934" lon="3.12223">
        <ele>793.3</ele>
        <time>2012-05-03T13:15:57Z</time>
      </trkpt>
      <trkpt lat="44.08934" lon="3.12212">
        <ele>791.8</ele>
        <time>2012-05-03T13:16:03Z</time>
      </trkpt>
      <trkpt lat="44.08935" lon="3.12201">
        <ele>791.7</ele>
        <time>2012-05-03T13:16:08Z</time>
      </trkpt>
      <trkpt lat="44.08938" lon="3.12191">
        <ele>790.9</ele>
        <time>2012-05-03T13:16:14Z</time>
      </trkpt>
      <trkpt lat="44.08941" lon="3.1218">
        <ele>790.4</ele>
        <time>2012-05-03T13:16:22Z</time>
      </trkpt>
      <trkpt lat="44.08947" lon="3.12171">
        <ele>792.5</ele>
        <time>2012-05-03T13:16:30Z</time>
      </trkpt>
      <trkpt lat="44.08955" lon="3.12173">
        <ele>794.5</ele>
        <time>2012-05-03T13:16:38Z</time>
      </trkpt>
      <trkpt lat="44.08964" lon="3.12174">
        <ele>793.5</ele>
        <time>2012-05-03T13:16:46Z</time>
      </trkpt>
      <trkpt lat="44.08965" lon="3.12175">
        <ele>793.4</ele>
        <time>2012-05-03T13:16:47Z</time>
      </trkpt>
      <trkpt lat="44.08981" lon="3.12177">
        <ele>792.7</ele>
        <time>2012-05-03T13:17:10Z</time>
      </trkpt>
      <trkpt lat="44.08988" lon="3.12181">
        <ele>792.3</ele>
        <time>2012-05-03T13:17:16Z</time>
      </trkpt>
      <trkpt lat="44.08994" lon="3.12187">
        <ele>791.7</ele>
        <time>2012-05-03T13:17:22Z</time>
      </trkpt>
      <trkpt lat="44.09" lon="3.12196">
        <ele>791.7</ele>
        <time>2012-05-03T13:17:28Z</time>
      </trkpt>
      <trkpt lat="44.09007" lon="3.12202">
        <ele>791.2</ele>
        <time>2012-05-03T13:17:34Z</time>
      </trkpt>
      <trkpt lat="44.09014" lon="3.12208">
        <ele>791</ele>
        <time>2012-05-03T13:17:40Z</time>
      </trkpt>
      <trkpt lat="44.09021" lon="3.12213">
        <ele>792.6</ele>
        <time>2012-05-03T13:17:46Z</time>
      </trkpt>
      <trkpt lat="44.09028" lon="3.1222">
        <ele>791.8</ele>
        <time>2012-05-03T13:17:52Z</time>
      </trkpt>
      <trkpt lat="44.09029" lon="3.1222">
        <ele>791.9</ele>
        <time>2012-05-03T13:17:53Z</time>
      </trkpt>
      <trkpt lat="44.09039" lon="3.12236">
        <ele>790.8</ele>
        <time>2012-05-03T13:18:06Z</time>
      </trkpt>
      <trkpt lat="44.09046" lon="3.12242">
        <ele>789.5</ele>
        <time>2012-05-03T13:18:13Z</time>
      </trkpt>
      <trkpt lat="44.09043" lon="3.12252">
        <ele>788.1</ele>
        <time>2012-05-03T13:18:21Z</time>
      </trkpt>
      <trkpt lat="44.09044" lon="3.12264">
        <ele>786.4</ele>
        <time>2012-05-03T13:18:28Z</time>
      </trkpt>
      <trkpt lat="44.09051" lon="3.12271">
        <ele>785.3</ele>
        <time>2012-05-03T13:18:36Z</time>
      </trkpt>
      <trkpt lat="44.09059" lon="3.12273">
        <ele>783.1</ele>
        <time>2012-05-03T13:18:42Z</time>
      </trkpt>
      <trkpt lat="44.09066" lon="3.12276">
        <ele>782.2</ele>
        <time>2012-05-03T13:18:48Z</time>
      </trkpt>
      <trkpt lat="44.09072" lon="3.12284">
        <ele>780.9</ele>
        <time>2012-05-03T13:18:59Z</time>
      </trkpt>
      <trkpt lat="44.09072" lon="3.12286">
        <ele>780.9</ele>
        <time>2012-05-03T13:19:00Z</time>
      </trkpt>
      <trkpt lat="44.09082" lon="3.12303">
        <ele>777.8</ele>
        <time>2012-05-03T13:19:14Z</time>
      </trkpt>
      <trkpt lat="44.09085" lon="3.12315">
        <ele>778</ele>
        <time>2012-05-03T13:19:22Z</time>
      </trkpt>
      <trkpt lat="44.09085" lon="3.12327">
        <ele>779.2</ele>
        <time>2012-05-03T13:19:29Z</time>
      </trkpt>
      <trkpt lat="44.09087" lon="3.12338">
        <ele>780.1</ele>
        <time>2012-05-03T13:19:35Z</time>
      </trkpt>
      <trkpt lat="44.09089" lon="3.12348">
        <ele>779.8</ele>
        <time>2012-05-03T13:19:41Z</time>
      </trkpt>
      <trkpt lat="44.09092" lon="3.12359">
        <ele>778.3</ele>
        <time>2012-05-03T13:19:48Z</time>
      </trkpt>
      <trkpt lat="44.09101" lon="3.12359">
        <ele>778</ele>
        <time>2012-05-03T13:19:56Z</time>
      </trkpt>
      <trkpt lat="44.09109" lon="3.12355">
        <ele>776.5</ele>
        <time>2012-05-03T13:20:03Z</time>
      </trkpt>
      <trkpt lat="44.0911" lon="3.12354">
        <ele>776.8</ele>
        <time>2012-05-03T13:20:04Z</time>
      </trkpt>
      <trkpt lat="44.09123" lon="3.12341">
        <ele>777.9</ele>
        <time>2012-05-03T13:20:15Z</time>
      </trkpt>
      <trkpt lat="44.09129" lon="3.12333">
        <ele>779.8</ele>
        <time>2012-05-03T13:20:21Z</time>
      </trkpt>
      <trkpt lat="44.09136" lon="3.12327">
        <ele>781.5</ele>
        <time>2012-05-03T13:20:27Z</time>
      </trkpt>
      <trkpt lat="44.09143" lon="3.12321">
        <ele>782.5</ele>
        <time>2012-05-03T13:20:34Z</time>
      </trkpt>
      <trkpt lat="44.0915" lon="3.12317">
        <ele>783.8</ele>
        <time>2012-05-03T13:20:40Z</time>
      </trkpt>
      <trkpt lat="44.09158" lon="3.12311">
        <ele>784.3</ele>
        <time>2012-05-03T13:20:46Z</time>
      </trkpt>
      <trkpt lat="44.09165" lon="3.12305">
        <ele>785.3</ele>
        <time>2012-05-03T13:20:52Z</time>
      </trkpt>
      <trkpt lat="44.09173" lon="3.12298">
        <ele>785.4</ele>
        <time>2012-05-03T13:20:58Z</time>
      </trkpt>
      <trkpt lat="44.09178" lon="3.12289">
        <ele>785.7</ele>
        <time>2012-05-03T13:21:05Z</time>
      </trkpt>
      <trkpt lat="44.09179" lon="3.12287">
        <ele>785.8</ele>
        <time>2012-05-03T13:21:06Z</time>
      </trkpt>
      <trkpt lat="44.09188" lon="3.12272">
        <ele>785.7</ele>
        <time>2012-05-03T13:21:17Z</time>
      </trkpt>
      <trkpt lat="44.09196" lon="3.12269">
        <ele>785.9</ele>
        <time>2012-05-03T13:21:24Z</time>
      </trkpt>
      <trkpt lat="44.09202" lon="3.12261">
        <ele>785.2</ele>
        <time>2012-05-03T13:21:31Z</time>
      </trkpt>
      <trkpt lat="44.09209" lon="3.12256">
        <ele>782.9</ele>
        <time>2012-05-03T13:21:40Z</time>
      </trkpt>
      <trkpt lat="44.09216" lon="3.12251">
        <ele>782.7</ele>
        <time>2012-05-03T13:21:45Z</time>
      </trkpt>
      <trkpt lat="44.09216" lon="3.1224">
        <ele>781.2</ele>
        <time>2012-05-03T13:21:51Z</time>
      </trkpt>
      <trkpt lat="44.09217" lon="3.12229">
        <ele>779.8</ele>
        <time>2012-05-03T13:21:57Z</time>
      </trkpt>
      <trkpt lat="44.09216" lon="3.12218">
        <ele>779.6</ele>
        <time>2012-05-03T13:22:03Z</time>
      </trkpt>
      <trkpt lat="44.09218" lon="3.12206">
        <ele>780.9</ele>
        <time>2012-05-03T13:22:09Z</time>
      </trkpt>
      <trkpt lat="44.09218" lon="3.12205">
        <ele>781.1</ele>
        <time>2012-05-03T13:22:10Z</time>
      </trkpt>
      <trkpt lat="44.0922" lon="3.12185">
        <ele>781</ele>
        <time>2012-05-03T13:22:22Z</time>
      </trkpt>
      <trkpt lat="44.09224" lon="3.12175">
        <ele>781.9</ele>
        <time>2012-05-03T13:22:28Z</time>
      </trkpt>
      <trkpt lat="44.09229" lon="3.12165">
        <ele>783</ele>
        <time>2012-05-03T13:22:34Z</time>
      </trkpt>
      <trkpt lat="44.09235" lon="3.12157">
        <ele>783</ele>
        <time>2012-05-03T13:22:40Z</time>
      </trkpt>
      <trkpt lat="44.09241" lon="3.12149">
        <ele>782.8</ele>
        <time>2012-05-03T13:22:46Z</time>
      </trkpt>
      <trkpt lat="44.09244" lon="3.12139">
        <ele>783.8</ele>
        <time>2012-05-03T13:22:52Z</time>
      </trkpt>
      <trkpt lat="44.09247" lon="3.12128">
        <ele>784.2</ele>
        <time>2012-05-03T13:22:59Z</time>
      </trkpt>
      <trkpt lat="44.0925" lon="3.12118">
        <ele>785.5</ele>
        <time>2012-05-03T13:23:06Z</time>
      </trkpt>
      <trkpt lat="44.09253" lon="3.12108">
        <ele>786.8</ele>
        <time>2012-05-03T13:23:13Z</time>
      </trkpt>
      <trkpt lat="44.09254" lon="3.12106">
        <ele>786.9</ele>
        <time>2012-05-03T13:23:14Z</time>
      </trkpt>
      <trkpt lat="44.09242" lon="3.12093">
        <ele>789.7</ele>
        <time>2012-05-03T13:23:34Z</time>
      </trkpt>
      <trkpt lat="44.09234" lon="3.12092">
        <ele>792.9</ele>
        <time>2012-05-03T13:23:45Z</time>
      </trkpt>
      <trkpt lat="44.09225" lon="3.12091">
        <ele>793.3</ele>
        <time>2012-05-03T13:23:53Z</time>
      </trkpt>
      <trkpt lat="44.09219" lon="3.12083">
        <ele>798</ele>
        <time>2012-05-03T13:24:20Z</time>
      </trkpt>
      <trkpt lat="44.09219" lon="3.12082">
        <ele>798.2</ele>
        <time>2012-05-03T13:24:21Z</time>
      </trkpt>
      <trkpt lat="44.0921" lon="3.12064">
        <ele>802.2</ele>
        <time>2012-05-03T13:24:41Z</time>
      </trkpt>
      <trkpt lat="44.09206" lon="3.12053">
        <ele>804.3</ele>
        <time>2012-05-03T13:24:50Z</time>
      </trkpt>
      <trkpt lat="44.09205" lon="3.12041">
        <ele>807.9</ele>
        <time>2012-05-03T13:24:59Z</time>
      </trkpt>
      <trkpt lat="44.09205" lon="3.1203">
        <ele>810</ele>
        <time>2012-05-03T13:25:08Z</time>
      </trkpt>
      <trkpt lat="44.09205" lon="3.12017">
        <ele>811.8</ele>
        <time>2012-05-03T13:25:17Z</time>
      </trkpt>
      <trkpt lat="44.09208" lon="3.12006">
        <ele>814.1</ele>
        <time>2012-05-03T13:25:32Z</time>
      </trkpt>
      <trkpt lat="44.09209" lon="3.12005">
        <ele>813.9</ele>
        <time>2012-05-03T13:25:33Z</time>
      </trkpt>
      <trkpt lat="44.09209" lon="3.11992">
        <ele>814.6</ele>
        <time>2012-05-03T13:26:27Z</time>
      </trkpt>
      <trkpt lat="44.09209" lon="3.1198">
        <ele>814.9</ele>
        <time>2012-05-03T13:26:38Z</time>
      </trkpt>
      <trkpt lat="44.0921" lon="3.11979">
        <ele>815.1</ele>
        <time>2012-05-03T13:26:39Z</time>
      </trkpt>
      <trkpt lat="44.09195" lon="3.11967">
        <ele>814.6</ele>
        <time>2012-05-03T13:27:41Z</time>
      </trkpt>
      <trkpt lat="44.09194" lon="3.11967">
        <ele>814.7</ele>
        <time>2012-05-03T13:27:42Z</time>
      </trkpt>
      <trkpt lat="44.09182" lon="3.11953">
        <ele>813.6</ele>
        <time>2012-05-03T13:28:01Z</time>
      </trkpt>
      <trkpt lat="44.09174" lon="3.11955">
        <ele>812.2</ele>
        <time>2012-05-03T13:28:09Z</time>
      </trkpt>
      <trkpt lat="44.09166" lon="3.11951">
        <ele>811.5</ele>
        <time>2012-05-03T13:28:17Z</time>
      </trkpt>
      <trkpt lat="44.09158" lon="3.11952">
        <ele>810.8</ele>
        <time>2012-05-03T13:28:24Z</time>
      </trkpt>
      <trkpt lat="44.0915" lon="3.11953">
        <ele>811</ele>
        <time>2012-05-03T13:28:30Z</time>
      </trkpt>
      <trkpt lat="44.09141" lon="3.11952">
        <ele>812.9</ele>
        <time>2012-05-03T13:28:39Z</time>
      </trkpt>
      <trkpt lat="44.09136" lon="3.11943">
        <ele>812.4</ele>
        <time>2012-05-03T13:28:49Z</time>
      </trkpt>
      <trkpt lat="44.09136" lon="3.11941">
        <ele>812.2</ele>
        <time>2012-05-03T13:28:50Z</time>
      </trkpt>
      <trkpt lat="44.09122" lon="3.1193">
        <ele>810.8</ele>
        <time>2012-05-03T13:29:02Z</time>
      </trkpt>
      <trkpt lat="44.09116" lon="3.11922">
        <ele>810.1</ele>
        <time>2012-05-03T13:29:09Z</time>
      </trkpt>
      <trkpt lat="44.09108" lon="3.11918">
        <ele>811</ele>
        <time>2012-05-03T13:29:17Z</time>
      </trkpt>
      <trkpt lat="44.09101" lon="3.11913">
        <ele>810.1</ele>
        <time>2012-05-03T13:29:24Z</time>
      </trkpt>
      <trkpt lat="44.09092" lon="3.11911">
        <ele>805.2</ele>
        <time>2012-05-03T13:29:33Z</time>
      </trkpt>
      <trkpt lat="44.09084" lon="3.11907">
        <ele>805</ele>
        <time>2012-05-03T13:29:39Z</time>
      </trkpt>
      <trkpt lat="44.09078" lon="3.11897">
        <ele>807.4</ele>
        <time>2012-05-03T13:29:48Z</time>
      </trkpt>
      <trkpt lat="44.0907" lon="3.11893">
        <ele>806</ele>
        <time>2012-05-03T13:29:56Z</time>
      </trkpt>
      <trkpt lat="44.09069" lon="3.11893">
        <ele>805.5</ele>
        <time>2012-05-03T13:29:57Z</time>
      </trkpt>
      <trkpt lat="44.09054" lon="3.11887">
        <ele>804.3</ele>
        <time>2012-05-03T13:30:09Z</time>
      </trkpt>
      <trkpt lat="44.09046" lon="3.11884">
        <ele>803</ele>
        <time>2012-05-03T13:30:15Z</time>
      </trkpt>
      <trkpt lat="44.09039" lon="3.11884">
        <ele>801.6</ele>
        <time>2012-05-03T13:30:21Z</time>
      </trkpt>
      <trkpt lat="44.0903" lon="3.11883">
        <ele>803.1</ele>
        <time>2012-05-03T13:30:28Z</time>
      </trkpt>
      <trkpt lat="44.09022" lon="3.1188">
        <ele>802.7</ele>
        <time>2012-05-03T13:30:34Z</time>
      </trkpt>
      <trkpt lat="44.09014" lon="3.11877">
        <ele>801.8</ele>
        <time>2012-05-03T13:30:41Z</time>
      </trkpt>
      <trkpt lat="44.09006" lon="3.11874">
        <ele>803.9</ele>
        <time>2012-05-03T13:30:48Z</time>
      </trkpt>
      <trkpt lat="44.08998" lon="3.11873">
        <ele>803.6</ele>
        <time>2012-05-03T13:30:54Z</time>
      </trkpt>
      <trkpt lat="44.08989" lon="3.11871">
        <ele>801.3</ele>
        <time>2012-05-03T13:31:01Z</time>
      </trkpt>
      <trkpt lat="44.08988" lon="3.11871">
        <ele>801</ele>
        <time>2012-05-03T13:31:02Z</time>
      </trkpt>
      <trkpt lat="44.08973" lon="3.11866">
        <ele>801.7</ele>
        <time>2012-05-03T13:31:14Z</time>
      </trkpt>
      <trkpt lat="44.08965" lon="3.11861">
        <ele>799.2</ele>
        <time>2012-05-03T13:31:21Z</time>
      </trkpt>
      <trkpt lat="44.08958" lon="3.11857">
        <ele>798.2</ele>
        <time>2012-05-03T13:31:27Z</time>
      </trkpt>
      <trkpt lat="44.08953" lon="3.11846">
        <ele>792.8</ele>
        <time>2012-05-03T13:32:50Z</time>
      </trkpt>
      <trkpt lat="44.08953" lon="3.11846">
        <ele>793.1</ele>
        <time>2012-05-03T13:32:51Z</time>
      </trkpt>
      <trkpt lat="44.0894" lon="3.11833">
        <ele>793.4</ele>
        <time>2012-05-03T13:33:05Z</time>
      </trkpt>
      <trkpt lat="44.08933" lon="3.11826">
        <ele>792.8</ele>
        <time>2012-05-03T13:33:13Z</time>
      </trkpt>
      <trkpt lat="44.08926" lon="3.1182">
        <ele>791.6</ele>
        <time>2012-05-03T13:33:20Z</time>
      </trkpt>
      <trkpt lat="44.0892" lon="3.11812">
        <ele>789</ele>
        <time>2012-05-03T13:33:30Z</time>
      </trkpt>
      <trkpt lat="44.08914" lon="3.11805">
        <ele>788.2</ele>
        <time>2012-05-03T13:33:36Z</time>
      </trkpt>
      <trkpt lat="44.08909" lon="3.11797">
        <ele>787.9</ele>
        <time>2012-05-03T13:33:42Z</time>
      </trkpt>
      <trkpt lat="44.08903" lon="3.11789">
        <ele>787.4</ele>
        <time>2012-05-03T13:33:47Z</time>
      </trkpt>
      <trkpt lat="44.08898" lon="3.1178">
        <ele>786.7</ele>
        <time>2012-05-03T13:33:53Z</time>
      </trkpt>
      <trkpt lat="44.08897" lon="3.11779">
        <ele>786.7</ele>
        <time>2012-05-03T13:33:54Z</time>
      </trkpt>
      <trkpt lat="44.08887" lon="3.11765">
        <ele>785.3</ele>
        <time>2012-05-03T13:34:06Z</time>
      </trkpt>
      <trkpt lat="44.08881" lon="3.11755">
        <ele>785.9</ele>
        <time>2012-05-03T13:34:12Z</time>
      </trkpt>
      <trkpt lat="44.08876" lon="3.11745">
        <ele>784.9</ele>
        <time>2012-05-03T13:34:18Z</time>
      </trkpt>
      <trkpt lat="44.08871" lon="3.11736">
        <ele>784.6</ele>
        <time>2012-05-03T13:34:24Z</time>
      </trkpt>
      <trkpt lat="44.08866" lon="3.11725">
        <ele>785.5</ele>
        <time>2012-05-03T13:34:30Z</time>
      </trkpt>
      <trkpt lat="44.08862" lon="3.11715">
        <ele>785.6</ele>
        <time>2012-05-03T13:34:36Z</time>
      </trkpt>
      <trkpt lat="44.08858" lon="3.11704">
        <ele>786.3</ele>
        <time>2012-05-03T13:34:42Z</time>
      </trkpt>
      <trkpt lat="44.08854" lon="3.11693">
        <ele>786.3</ele>
        <time>2012-05-03T13:34:48Z</time>
      </trkpt>
      <trkpt lat="44.08851" lon="3.11683">
        <ele>786.4</ele>
        <time>2012-05-03T13:34:54Z</time>
      </trkpt>
      <trkpt lat="44.0885" lon="3.11681">
        <ele>786.4</ele>
        <time>2012-05-03T13:34:55Z</time>
      </trkpt>
      <trkpt lat="44.08845" lon="3.11661">
        <ele>785.5</ele>
        <time>2012-05-03T13:35:06Z</time>
      </trkpt>
      <trkpt lat="44.08841" lon="3.1165">
        <ele>785.2</ele>
        <time>2012-05-03T13:35:12Z</time>
      </trkpt>
      <trkpt lat="44.08837" lon="3.1164">
        <ele>784.3</ele>
        <time>2012-05-03T13:35:18Z</time>
      </trkpt>
      <trkpt lat="44.08833" lon="3.1163">
        <ele>785.8</ele>
        <time>2012-05-03T13:35:24Z</time>
      </trkpt>
      <trkpt lat="44.08828" lon="3.1162">
        <ele>784.9</ele>
        <time>2012-05-03T13:35:31Z</time>
      </trkpt>
      <trkpt lat="44.08825" lon="3.1161">
        <ele>784.7</ele>
        <time>2012-05-03T13:35:37Z</time>
      </trkpt>
      <trkpt lat="44.08822" lon="3.11599">
        <ele>784.2</ele>
        <time>2012-05-03T13:35:43Z</time>
      </trkpt>
      <trkpt lat="44.08819" lon="3.11588">
        <ele>783.7</ele>
        <time>2012-05-03T13:35:49Z</time>
      </trkpt>
      <trkpt lat="44.08817" lon="3.11577">
        <ele>783.4</ele>
        <time>2012-05-03T13:35:55Z</time>
      </trkpt>
      <trkpt lat="44.08817" lon="3.11575">
        <ele>783.5</ele>
        <time>2012-05-03T13:35:56Z</time>
      </trkpt>
      <trkpt lat="44.08815" lon="3.11555">
        <ele>782.8</ele>
        <time>2012-05-03T13:36:07Z</time>
      </trkpt>
      <trkpt lat="44.08813" lon="3.11543">
        <ele>782.8</ele>
        <time>2012-05-03T13:36:13Z</time>
      </trkpt>
      <trkpt lat="44.08811" lon="3.11533">
        <ele>782.7</ele>
        <time>2012-05-03T13:36:19Z</time>
      </trkpt>
      <trkpt lat="44.08809" lon="3.11521">
        <ele>783.4</ele>
        <time>2012-05-03T13:36:25Z</time>
      </trkpt>
      <trkpt lat="44.08807" lon="3.11511">
        <ele>782.4</ele>
        <time>2012-05-03T13:36:31Z</time>
      </trkpt>
      <trkpt lat="44.08805" lon="3.115">
        <ele>781.7</ele>
        <time>2012-05-03T13:36:37Z</time>
      </trkpt>
      <trkpt lat="44.08802" lon="3.1149">
        <ele>781.2</ele>
        <time>2012-05-03T13:36:43Z</time>
      </trkpt>
      <trkpt lat="44.088" lon="3.11479">
        <ele>781.2</ele>
        <time>2012-05-03T13:36:49Z</time>
      </trkpt>
      <trkpt lat="44.08797" lon="3.11469">
        <ele>781.1</ele>
        <time>2012-05-03T13:36:55Z</time>
      </trkpt>
      <trkpt lat="44.08795" lon="3.11457">
        <ele>780.3</ele>
        <time>2012-05-03T13:37:02Z</time>
      </trkpt>
      <trkpt lat="44.08794" lon="3.11455">
        <ele>780.6</ele>
        <time>2012-05-03T13:37:03Z</time>
      </trkpt>
      <trkpt lat="44.08791" lon="3.11436">
        <ele>780.7</ele>
        <time>2012-05-03T13:37:14Z</time>
      </trkpt>
      <trkpt lat="44.0879" lon="3.11425">
        <ele>780.3</ele>
        <time>2012-05-03T13:37:20Z</time>
      </trkpt>
      <trkpt lat="44.08788" lon="3.11414">
        <ele>781.2</ele>
        <time>2012-05-03T13:37:26Z</time>
      </trkpt>
      <trkpt lat="44.08787" lon="3.11403">
        <ele>780.9</ele>
        <time>2012-05-03T13:37:32Z</time>
      </trkpt>
      <trkpt lat="44.08784" lon="3.11393">
        <ele>781.1</ele>
        <time>2012-05-03T13:37:38Z</time>
      </trkpt>
      <trkpt lat="44.08784" lon="3.11381">
        <ele>782.3</ele>
        <time>2012-05-03T13:37:45Z</time>
      </trkpt>
      <trkpt lat="44.08783" lon="3.11369">
        <ele>781.3</ele>
        <time>2012-05-03T13:37:51Z</time>
      </trkpt>
      <trkpt lat="44.08784" lon="3.11358">
        <ele>781.5</ele>
        <time>2012-05-03T13:37:57Z</time>
      </trkpt>
      <trkpt lat="44.08786" lon="3.11345">
        <ele>782.5</ele>
        <time>2012-05-03T13:38:03Z</time>
      </trkpt>
      <trkpt lat="44.08786" lon="3.11344">
        <ele>782.2</ele>
        <time>2012-05-03T13:38:04Z</time>
      </trkpt>
      <trkpt lat="44.08791" lon="3.11324">
        <ele>781.4</ele>
        <time>2012-05-03T13:38:15Z</time>
      </trkpt>
      <trkpt lat="44.08793" lon="3.11313">
        <ele>781.9</ele>
        <time>2012-05-03T13:38:21Z</time>
      </trkpt>
      <trkpt lat="44.08795" lon="3.11302">
        <ele>781.7</ele>
        <time>2012-05-03T13:38:27Z</time>
      </trkpt>
      <trkpt lat="44.08796" lon="3.1129">
        <ele>781.3</ele>
        <time>2012-05-03T13:38:33Z</time>
      </trkpt>
      <trkpt lat="44.08796" lon="3.11279">
        <ele>782.6</ele>
        <time>2012-05-03T13:38:38Z</time>
      </trkpt>
      <trkpt lat="44.08797" lon="3.11267">
        <ele>783.3</ele>
        <time>2012-05-03T13:38:44Z</time>
      </trkpt>
      <trkpt lat="44.08795" lon="3.11257">
        <ele>783.7</ele>
        <time>2012-05-03T13:38:49Z</time>
      </trkpt>
      <trkpt lat="44.08796" lon="3.11245">
        <ele>784.6</ele>
        <time>2012-05-03T13:38:55Z</time>
      </trkpt>
      <trkpt lat="44.08797" lon="3.11234">
        <ele>784.5</ele>
        <time>2012-05-03T13:39:01Z</time>
      </trkpt>
      <trkpt lat="44.08797" lon="3.11223">
        <ele>783.3</ele>
        <time>2012-05-03T13:39:07Z</time>
      </trkpt>
      <trkpt lat="44.08797" lon="3.11221">
        <ele>783.1</ele>
        <time>2012-05-03T13:39:08Z</time>
      </trkpt>
      <trkpt lat="44.08802" lon="3.11202">
        <ele>783.9</ele>
        <time>2012-05-03T13:39:52Z</time>
      </trkpt>
      <trkpt lat="44.08806" lon="3.11192">
        <ele>783</ele>
        <time>2012-05-03T13:39:58Z</time>
      </trkpt>
      <trkpt lat="44.08811" lon="3.11182">
        <ele>782.6</ele>
        <time>2012-05-03T13:40:04Z</time>
      </trkpt>
      <trkpt lat="44.08816" lon="3.11171">
        <ele>782.7</ele>
        <time>2012-05-03T13:40:10Z</time>
      </trkpt>
      <trkpt lat="44.08817" lon="3.1117">
        <ele>782.5</ele>
        <time>2012-05-03T13:40:11Z</time>
      </trkpt>
      <trkpt lat="44.08826" lon="3.11152">
        <ele>785.5</ele>
        <time>2012-05-03T13:40:23Z</time>
      </trkpt>
      <trkpt lat="44.08829" lon="3.11141">
        <ele>786.3</ele>
        <time>2012-05-03T13:40:29Z</time>
      </trkpt>
      <trkpt lat="44.08831" lon="3.1113">
        <ele>785.2</ele>
        <time>2012-05-03T13:40:36Z</time>
      </trkpt>
      <trkpt lat="44.08834" lon="3.11119">
        <ele>785.1</ele>
        <time>2012-05-03T13:40:47Z</time>
      </trkpt>
      <trkpt lat="44.08843" lon="3.11114">
        <ele>785.5</ele>
        <time>2012-05-03T13:40:55Z</time>
      </trkpt>
      <trkpt lat="44.0885" lon="3.11109">
        <ele>786.2</ele>
        <time>2012-05-03T13:41:02Z</time>
      </trkpt>
      <trkpt lat="44.08858" lon="3.11107">
        <ele>784.7</ele>
        <time>2012-05-03T13:41:08Z</time>
      </trkpt>
      <trkpt lat="44.08866" lon="3.11103">
        <ele>786</ele>
        <time>2012-05-03T13:41:14Z</time>
      </trkpt>
      <trkpt lat="44.08867" lon="3.11102">
        <ele>786.1</ele>
        <time>2012-05-03T13:41:15Z</time>
      </trkpt>
      <trkpt lat="44.08881" lon="3.11095">
        <ele>788.8</ele>
        <time>2012-05-03T13:41:25Z</time>
      </trkpt>
      <trkpt lat="44.08887" lon="3.11089">
        <ele>789.4</ele>
        <time>2012-05-03T13:41:32Z</time>
      </trkpt>
      <trkpt lat="44.08895" lon="3.11084">
        <ele>790</ele>
        <time>2012-05-03T13:41:38Z</time>
      </trkpt>
      <trkpt lat="44.08903" lon="3.11081">
        <ele>791.1</ele>
        <time>2012-05-03T13:41:45Z</time>
      </trkpt>
      <trkpt lat="44.08912" lon="3.11081">
        <ele>792.3</ele>
        <time>2012-05-03T13:41:52Z</time>
      </trkpt>
      <trkpt lat="44.0892" lon="3.11082">
        <ele>793.4</ele>
        <time>2012-05-03T13:42:00Z</time>
      </trkpt>
      <trkpt lat="44.08926" lon="3.11074">
        <ele>794</ele>
        <time>2012-05-03T13:42:07Z</time>
      </trkpt>
      <trkpt lat="44.08925" lon="3.11063">
        <ele>795</ele>
        <time>2012-05-03T13:42:13Z</time>
      </trkpt>
      <trkpt lat="44.08922" lon="3.11052">
        <ele>796</ele>
        <time>2012-05-03T13:42:19Z</time>
      </trkpt>
      <trkpt lat="44.08922" lon="3.1105">
        <ele>796.2</ele>
        <time>2012-05-03T13:42:20Z</time>
      </trkpt>
      <trkpt lat="44.08928" lon="3.11031">
        <ele>797.7</ele>
        <time>2012-05-03T13:42:31Z</time>
      </trkpt>
      <trkpt lat="44.08928" lon="3.11019">
        <ele>797.3</ele>
        <time>2012-05-03T13:42:51Z</time>
      </trkpt>
      <trkpt lat="44.08928" lon="3.11007">
        <ele>797.5</ele>
        <time>2012-05-03T13:42:59Z</time>
      </trkpt>
      <trkpt lat="44.08923" lon="3.10997">
        <ele>798.3</ele>
        <time>2012-05-03T13:43:07Z</time>
      </trkpt>
      <trkpt lat="44.0892" lon="3.11008">
        <ele>797.6</ele>
        <time>2012-05-03T13:43:58Z</time>
      </trkpt>
      <trkpt lat="44.0892" lon="3.11009">
        <ele>797.6</ele>
        <time>2012-05-03T13:43:59Z</time>
      </trkpt>
      <trkpt lat="44.08919" lon="3.11031">
        <ele>797</ele>
        <time>2012-05-03T13:44:13Z</time>
      </trkpt>
      <trkpt lat="44.0892" lon="3.11043">
        <ele>796.6</ele>
        <time>2012-05-03T13:44:20Z</time>
      </trkpt>
      <trkpt lat="44.08921" lon="3.11053">
        <ele>796.4</ele>
        <time>2012-05-03T13:44:26Z</time>
      </trkpt>
      <trkpt lat="44.08923" lon="3.11065">
        <ele>796.2</ele>
        <time>2012-05-03T13:44:33Z</time>
      </trkpt>
      <trkpt lat="44.0892" lon="3.11077">
        <ele>795.7</ele>
        <time>2012-05-03T13:44:41Z</time>
      </trkpt>
      <trkpt lat="44.08912" lon="3.11078">
        <ele>794.7</ele>
        <time>2012-05-03T13:44:49Z</time>
      </trkpt>
      <trkpt lat="44.08903" lon="3.11078">
        <ele>792.1</ele>
        <time>2012-05-03T13:45:08Z</time>
      </trkpt>
      <trkpt lat="44.08902" lon="3.11078">
        <ele>792.2</ele>
        <time>2012-05-03T13:45:09Z</time>
      </trkpt>
      <trkpt lat="44.08889" lon="3.11089">
        <ele>788.7</ele>
        <time>2012-05-03T13:45:22Z</time>
      </trkpt>
      <trkpt lat="44.08882" lon="3.11094">
        <ele>788.3</ele>
        <time>2012-05-03T13:45:29Z</time>
      </trkpt>
      <trkpt lat="44.08875" lon="3.11099">
        <ele>788.5</ele>
        <time>2012-05-03T13:45:35Z</time>
      </trkpt>
      <trkpt lat="44.08867" lon="3.11103">
        <ele>788.2</ele>
        <time>2012-05-03T13:45:42Z</time>
      </trkpt>
      <trkpt lat="44.08859" lon="3.11106">
        <ele>788.2</ele>
        <time>2012-05-03T13:45:47Z</time>
      </trkpt>
      <trkpt lat="44.08851" lon="3.11109">
        <ele>788.2</ele>
        <time>2012-05-03T13:45:52Z</time>
      </trkpt>
      <trkpt lat="44.08843" lon="3.1111">
        <ele>788.7</ele>
        <time>2012-05-03T13:45:57Z</time>
      </trkpt>
      <trkpt lat="44.08836" lon="3.11109">
        <ele>787.8</ele>
        <time>2012-05-03T13:46:02Z</time>
      </trkpt>
      <trkpt lat="44.08827" lon="3.1111">
        <ele>788.8</ele>
        <time>2012-05-03T13:46:08Z</time>
      </trkpt>
      <trkpt lat="44.08819" lon="3.11106">
        <ele>788.8</ele>
        <time>2012-05-03T13:46:17Z</time>
      </trkpt>
      <trkpt lat="44.08818" lon="3.11105">
        <ele>788.7</ele>
        <time>2012-05-03T13:46:18Z</time>
      </trkpt>
      <trkpt lat="44.08804" lon="3.11093">
        <ele>789.7</ele>
        <time>2012-05-03T13:46:33Z</time>
      </trkpt>
      <trkpt lat="44.08797" lon="3.11087">
        <ele>790.7</ele>
        <time>2012-05-03T13:46:39Z</time>
      </trkpt>
      <trkpt lat="44.08789" lon="3.11083">
        <ele>791.1</ele>
        <time>2012-05-03T13:46:45Z</time>
      </trkpt>
      <trkpt lat="44.08782" lon="3.11079">
        <ele>792</ele>
        <time>2012-05-03T13:46:51Z</time>
      </trkpt>
      <trkpt lat="44.08775" lon="3.11076">
        <ele>792</ele>
        <time>2012-05-03T13:46:56Z</time>
      </trkpt>
      <trkpt lat="44.08768" lon="3.11072">
        <ele>791.8</ele>
        <time>2012-05-03T13:47:00Z</time>
      </trkpt>
      <trkpt lat="44.08761" lon="3.11067">
        <ele>792.1</ele>
        <time>2012-05-03T13:47:05Z</time>
      </trkpt>
      <trkpt lat="44.08753" lon="3.11063">
        <ele>793.2</ele>
        <time>2012-05-03T13:47:10Z</time>
      </trkpt>
      <trkpt lat="44.08746" lon="3.11058">
        <ele>791.8</ele>
        <time>2012-05-03T13:47:16Z</time>
      </trkpt>
      <trkpt lat="44.08739" lon="3.11052">
        <ele>788.9</ele>
        <time>2012-05-03T13:47:23Z</time>
      </trkpt>
      <trkpt lat="44.08738" lon="3.11052">
        <ele>790.5</ele>
        <time>2012-05-03T13:47:24Z</time>
      </trkpt>
      <trkpt lat="44.08725" lon="3.11039">
        <ele>790.7</ele>
        <time>2012-05-03T13:47:36Z</time>
      </trkpt>
      <trkpt lat="44.08718" lon="3.11034">
        <ele>789.2</ele>
        <time>2012-05-03T13:47:49Z</time>
      </trkpt>
      <trkpt lat="44.08712" lon="3.11027">
        <ele>788.3</ele>
        <time>2012-05-03T13:47:55Z</time>
      </trkpt>
      <trkpt lat="44.08706" lon="3.11018">
        <ele>786.5</ele>
        <time>2012-05-03T13:48:03Z</time>
      </trkpt>
      <trkpt lat="44.087" lon="3.1101">
        <ele>786.1</ele>
        <time>2012-05-03T13:48:09Z</time>
      </trkpt>
      <trkpt lat="44.08695" lon="3.11001">
        <ele>785.5</ele>
        <time>2012-05-03T13:48:16Z</time>
      </trkpt>
      <trkpt lat="44.0869" lon="3.10993">
        <ele>785.1</ele>
        <time>2012-05-03T13:48:23Z</time>
      </trkpt>
      <trkpt lat="44.08684" lon="3.10985">
        <ele>785.1</ele>
        <time>2012-05-03T13:48:28Z</time>
      </trkpt>
      <trkpt lat="44.08683" lon="3.10983">
        <ele>784.8</ele>
        <time>2012-05-03T13:48:29Z</time>
      </trkpt>
      <trkpt lat="44.08673" lon="3.10971">
        <ele>784.6</ele>
        <time>2012-05-03T13:48:38Z</time>
      </trkpt>
      <trkpt lat="44.08667" lon="3.10964">
        <ele>784.8</ele>
        <time>2012-05-03T13:48:43Z</time>
      </trkpt>
      <trkpt lat="44.0866" lon="3.10958">
        <ele>784.1</ele>
        <time>2012-05-03T13:48:47Z</time>
      </trkpt>
      <trkpt lat="44.08653" lon="3.10953">
        <ele>784.3</ele>
        <time>2012-05-03T13:48:51Z</time>
      </trkpt>
      <trkpt lat="44.08647" lon="3.10947">
        <ele>784.1</ele>
        <time>2012-05-03T13:48:56Z</time>
      </trkpt>
      <trkpt lat="44.08639" lon="3.10942">
        <ele>783.9</ele>
        <time>2012-05-03T13:49:01Z</time>
      </trkpt>
      <trkpt lat="44.08631" lon="3.10936">
        <ele>783.8</ele>
        <time>2012-05-03T13:49:08Z</time>
      </trkpt>
      <trkpt lat="44.08624" lon="3.1093">
        <ele>782.7</ele>
        <time>2012-05-03T13:49:14Z</time>
      </trkpt>
      <trkpt lat="44.08618" lon="3.10925">
        <ele>782.9</ele>
        <time>2012-05-03T13:49:20Z</time>
      </trkpt>
      <trkpt lat="44.08611" lon="3.10918">
        <ele>782.6</ele>
        <time>2012-05-03T13:49:27Z</time>
      </trkpt>
      <trkpt lat="44.08602" lon="3.10915">
        <ele>781.6</ele>
        <time>2012-05-03T13:49:34Z</time>
      </trkpt>
      <trkpt lat="44.08601" lon="3.10915">
        <ele>781.8</ele>
        <time>2012-05-03T13:49:35Z</time>
      </trkpt>
      <trkpt lat="44.08586" lon="3.1091">
        <ele>780.8</ele>
        <time>2012-05-03T13:49:46Z</time>
      </trkpt>
      <trkpt lat="44.08578" lon="3.10904">
        <ele>781.1</ele>
        <time>2012-05-03T13:49:52Z</time>
      </trkpt>
      <trkpt lat="44.08572" lon="3.10897">
        <ele>782</ele>
        <time>2012-05-03T13:49:57Z</time>
      </trkpt>
      <trkpt lat="44.08566" lon="3.10889">
        <ele>781.5</ele>
        <time>2012-05-03T13:50:03Z</time>
      </trkpt>
      <trkpt lat="44.08561" lon="3.1088">
        <ele>781.6</ele>
        <time>2012-05-03T13:50:09Z</time>
      </trkpt>
      <trkpt lat="44.08554" lon="3.10872">
        <ele>780.9</ele>
        <time>2012-05-03T13:50:15Z</time>
      </trkpt>
      <trkpt lat="44.08547" lon="3.10864">
        <ele>780.8</ele>
        <time>2012-05-03T13:50:21Z</time>
      </trkpt>
      <trkpt lat="44.08541" lon="3.10857">
        <ele>780.5</ele>
        <time>2012-05-03T13:50:26Z</time>
      </trkpt>
      <trkpt lat="44.08535" lon="3.10848">
        <ele>778.5</ele>
        <time>2012-05-03T13:50:33Z</time>
      </trkpt>
      <trkpt lat="44.0853" lon="3.10839">
        <ele>778.6</ele>
        <time>2012-05-03T13:50:41Z</time>
      </trkpt>
      <trkpt lat="44.08529" lon="3.10838">
        <ele>778.6</ele>
        <time>2012-05-03T13:50:42Z</time>
      </trkpt>
      <trkpt lat="44.08516" lon="3.10829">
        <ele>777.4</ele>
        <time>2012-05-03T13:50:53Z</time>
      </trkpt>
      <trkpt lat="44.08508" lon="3.10825">
        <ele>775.6</ele>
        <time>2012-05-03T13:50:59Z</time>
      </trkpt>
      <trkpt lat="44.08501" lon="3.10817">
        <ele>775.2</ele>
        <time>2012-05-03T13:51:06Z</time>
      </trkpt>
      <trkpt lat="44.08494" lon="3.10811">
        <ele>775.6</ele>
        <time>2012-05-03T13:51:12Z</time>
      </trkpt>
      <trkpt lat="44.08487" lon="3.10805">
        <ele>775.7</ele>
        <time>2012-05-03T13:51:18Z</time>
      </trkpt>
      <trkpt lat="44.08479" lon="3.10798">
        <ele>775.5</ele>
        <time>2012-05-03T13:51:24Z</time>
      </trkpt>
      <trkpt lat="44.08471" lon="3.10797">
        <ele>776.4</ele>
        <time>2012-05-03T13:51:31Z</time>
      </trkpt>
      <trkpt lat="44.08463" lon="3.10798">
        <ele>775.8</ele>
        <time>2012-05-03T13:51:37Z</time>
      </trkpt>
      <trkpt lat="44.08454" lon="3.10796">
        <ele>775.1</ele>
        <time>2012-05-03T13:51:43Z</time>
      </trkpt>
      <trkpt lat="44.08453" lon="3.10795">
        <ele>774.9</ele>
        <time>2012-05-03T13:51:44Z</time>
      </trkpt>
      <trkpt lat="44.08441" lon="3.10784">
        <ele>774.7</ele>
        <time>2012-05-03T13:51:55Z</time>
      </trkpt>
      <trkpt lat="44.08435" lon="3.10775">
        <ele>774.3</ele>
        <time>2012-05-03T13:52:01Z</time>
      </trkpt>
      <trkpt lat="44.08428" lon="3.10768">
        <ele>774.2</ele>
        <time>2012-05-03T13:52:07Z</time>
      </trkpt>
      <trkpt lat="44.08421" lon="3.10762">
        <ele>774.6</ele>
        <time>2012-05-03T13:52:13Z</time>
      </trkpt>
      <trkpt lat="44.08414" lon="3.10756">
        <ele>773.9</ele>
        <time>2012-05-03T13:52:19Z</time>
      </trkpt>
      <trkpt lat="44.08408" lon="3.10748">
        <ele>774.5</ele>
        <time>2012-05-03T13:52:25Z</time>
      </trkpt>
      <trkpt lat="44.08403" lon="3.10739">
        <ele>774.5</ele>
        <time>2012-05-03T13:52:31Z</time>
      </trkpt>
      <trkpt lat="44.08398" lon="3.10728">
        <ele>775.6</ele>
        <time>2012-05-03T13:52:38Z</time>
      </trkpt>
      <trkpt lat="44.08392" lon="3.10723">
        <ele>774.6</ele>
        <time>2012-05-03T13:52:44Z</time>
      </trkpt>
      <trkpt lat="44.0839" lon="3.10722">
        <ele>774.4</ele>
        <time>2012-05-03T13:52:45Z</time>
      </trkpt>
      <trkpt lat="44.08376" lon="3.10718">
        <ele>773.1</ele>
        <time>2012-05-03T13:52:56Z</time>
      </trkpt>
      <trkpt lat="44.08369" lon="3.10713">
        <ele>772.2</ele>
        <time>2012-05-03T13:53:01Z</time>
      </trkpt>
      <trkpt lat="44.08362" lon="3.10707">
        <ele>771.7</ele>
        <time>2012-05-03T13:53:07Z</time>
      </trkpt>
      <trkpt lat="44.08355" lon="3.10702">
        <ele>771.4</ele>
        <time>2012-05-03T13:53:14Z</time>
      </trkpt>
      <trkpt lat="44.08349" lon="3.10693">
        <ele>770.7</ele>
        <time>2012-05-03T13:53:21Z</time>
      </trkpt>
      <trkpt lat="44.08344" lon="3.10682">
        <ele>771.2</ele>
        <time>2012-05-03T13:53:28Z</time>
      </trkpt>
      <trkpt lat="44.08341" lon="3.10673">
        <ele>769.7</ele>
        <time>2012-05-03T13:53:34Z</time>
      </trkpt>
      <trkpt lat="44.08337" lon="3.10663">
        <ele>767.8</ele>
        <time>2012-05-03T13:53:40Z</time>
      </trkpt>
      <trkpt lat="44.08331" lon="3.10654">
        <ele>766.8</ele>
        <time>2012-05-03T13:53:47Z</time>
      </trkpt>
      <trkpt lat="44.0833" lon="3.10654">
        <ele>766.6</ele>
        <time>2012-05-03T13:53:48Z</time>
      </trkpt>
      <trkpt lat="44.08314" lon="3.1065">
        <ele>765.3</ele>
        <time>2012-05-03T13:54:18Z</time>
      </trkpt>
      <trkpt lat="44.08305" lon="3.1065">
        <ele>765.4</ele>
        <time>2012-05-03T13:54:35Z</time>
      </trkpt>
      <trkpt lat="44.08298" lon="3.10657">
        <ele>764.7</ele>
        <time>2012-05-03T13:54:43Z</time>
      </trkpt>
      <trkpt lat="44.08291" lon="3.10664">
        <ele>764.8</ele>
        <time>2012-05-03T13:55:05Z</time>
      </trkpt>
      <trkpt lat="44.0829" lon="3.10665">
        <ele>764.9</ele>
        <time>2012-05-03T13:55:06Z</time>
      </trkpt>
      <trkpt lat="44.08277" lon="3.10678">
        <ele>764.6</ele>
        <time>2012-05-03T13:55:20Z</time>
      </trkpt>
      <trkpt lat="44.0827" lon="3.10686">
        <ele>764.1</ele>
        <time>2012-05-03T13:55:27Z</time>
      </trkpt>
      <trkpt lat="44.08263" lon="3.10693">
        <ele>764.7</ele>
        <time>2012-05-03T13:55:34Z</time>
      </trkpt>
      <trkpt lat="44.08257" lon="3.107">
        <ele>765.8</ele>
        <time>2012-05-03T13:55:41Z</time>
      </trkpt>
      <trkpt lat="44.0825" lon="3.10707">
        <ele>766.6</ele>
        <time>2012-05-03T13:55:47Z</time>
      </trkpt>
      <trkpt lat="44.08246" lon="3.10716">
        <ele>766.6</ele>
        <time>2012-05-03T13:55:54Z</time>
      </trkpt>
      <trkpt lat="44.0824" lon="3.10726">
        <ele>766.9</ele>
        <time>2012-05-03T13:56:00Z</time>
      </trkpt>
      <trkpt lat="44.08234" lon="3.10735">
        <ele>766.9</ele>
        <time>2012-05-03T13:56:08Z</time>
      </trkpt>
      <trkpt lat="44.08234" lon="3.10736">
        <ele>767</ele>
        <time>2012-05-03T13:56:09Z</time>
      </trkpt>
      <trkpt lat="44.08225" lon="3.10755">
        <ele>766</ele>
        <time>2012-05-03T13:56:23Z</time>
      </trkpt>
      <trkpt lat="44.08221" lon="3.10766">
        <ele>766.5</ele>
        <time>2012-05-03T13:56:31Z</time>
      </trkpt>
      <trkpt lat="44.08214" lon="3.10774">
        <ele>766.3</ele>
        <time>2012-05-03T13:56:39Z</time>
      </trkpt>
      <trkpt lat="44.08206" lon="3.10779">
        <ele>767.1</ele>
        <time>2012-05-03T13:56:49Z</time>
      </trkpt>
      <trkpt lat="44.08199" lon="3.10785">
        <ele>766.8</ele>
        <time>2012-05-03T13:56:56Z</time>
      </trkpt>
      <trkpt lat="44.0819" lon="3.10789">
        <ele>766.6</ele>
        <time>2012-05-03T13:57:03Z</time>
      </trkpt>
      <trkpt lat="44.08182" lon="3.10791">
        <ele>766.2</ele>
        <time>2012-05-03T13:57:10Z</time>
      </trkpt>
      <trkpt lat="44.0818" lon="3.10792">
        <ele>765.9</ele>
        <time>2012-05-03T13:57:11Z</time>
      </trkpt>
      <trkpt lat="44.08166" lon="3.10799">
        <ele>766.4</ele>
        <time>2012-05-03T13:57:23Z</time>
      </trkpt>
      <trkpt lat="44.08158" lon="3.10803">
        <ele>765.9</ele>
        <time>2012-05-03T13:57:29Z</time>
      </trkpt>
      <trkpt lat="44.0815" lon="3.10806">
        <ele>765.3</ele>
        <time>2012-05-03T13:57:35Z</time>
      </trkpt>
      <trkpt lat="44.08142" lon="3.10811">
        <ele>765.5</ele>
        <time>2012-05-03T13:57:41Z</time>
      </trkpt>
      <trkpt lat="44.08134" lon="3.10815">
        <ele>765.7</ele>
        <time>2012-05-03T13:57:47Z</time>
      </trkpt>
      <trkpt lat="44.08126" lon="3.10818">
        <ele>765.8</ele>
        <time>2012-05-03T13:57:53Z</time>
      </trkpt>
      <trkpt lat="44.08119" lon="3.10826">
        <ele>764.5</ele>
        <time>2012-05-03T13:58:02Z</time>
      </trkpt>
      <trkpt lat="44.08115" lon="3.10836">
        <ele>762.9</ele>
        <time>2012-05-03T13:58:23Z</time>
      </trkpt>
      <trkpt lat="44.08115" lon="3.10838">
        <ele>762.9</ele>
        <time>2012-05-03T13:58:24Z</time>
      </trkpt>
      <trkpt lat="44.0811" lon="3.10859">
        <ele>761.3</ele>
        <time>2012-05-03T13:58:42Z</time>
      </trkpt>
      <trkpt lat="44.08107" lon="3.1087">
        <ele>762.1</ele>
        <time>2012-05-03T13:58:50Z</time>
      </trkpt>
      <trkpt lat="44.08108" lon="3.10882">
        <ele>757.6</ele>
        <time>2012-05-03T13:59:14Z</time>
      </trkpt>
      <trkpt lat="44.08106" lon="3.10894">
        <ele>760.9</ele>
        <time>2012-05-03T13:59:59Z</time>
      </trkpt>
      <trkpt lat="44.08105" lon="3.10896">
        <ele>761.2</ele>
        <time>2012-05-03T14:00:00Z</time>
      </trkpt>
      <trkpt lat="44.08098" lon="3.10914">
        <ele>760.6</ele>
        <time>2012-05-03T14:00:10Z</time>
      </trkpt>
      <trkpt lat="44.08095" lon="3.10925">
        <ele>759.9</ele>
        <time>2012-05-03T14:00:16Z</time>
      </trkpt>
      <trkpt lat="44.0809" lon="3.10934">
        <ele>761.9</ele>
        <time>2012-05-03T14:00:23Z</time>
      </trkpt>
      <trkpt lat="44.08081" lon="3.10938">
        <ele>762.2</ele>
        <time>2012-05-03T14:00:36Z</time>
      </trkpt>
      <trkpt lat="44.08075" lon="3.10946">
        <ele>762.9</ele>
        <time>2012-05-03T14:00:50Z</time>
      </trkpt>
      <trkpt lat="44.08069" lon="3.10952">
        <ele>760.5</ele>
        <time>2012-05-03T14:00:57Z</time>
      </trkpt>
      <trkpt lat="44.08065" lon="3.10962">
        <ele>759.5</ele>
        <time>2012-05-03T14:01:04Z</time>
      </trkpt>
      <trkpt lat="44.08065" lon="3.10964">
        <ele>759.4</ele>
        <time>2012-05-03T14:01:05Z</time>
      </trkpt>
      <trkpt lat="44.08062" lon="3.10984">
        <ele>759.7</ele>
        <time>2012-05-03T14:01:16Z</time>
      </trkpt>
      <trkpt lat="44.08059" lon="3.10996">
        <ele>761.3</ele>
        <time>2012-05-03T14:01:23Z</time>
      </trkpt>
      <trkpt lat="44.0806" lon="3.11007">
        <ele>762.8</ele>
        <time>2012-05-03T14:01:32Z</time>
      </trkpt>
      <trkpt lat="44.08061" lon="3.1102">
        <ele>761.8</ele>
        <time>2012-05-03T14:01:40Z</time>
      </trkpt>
      <trkpt lat="44.0806" lon="3.11031">
        <ele>762.7</ele>
        <time>2012-05-03T14:01:46Z</time>
      </trkpt>
      <trkpt lat="44.0806" lon="3.11042">
        <ele>762.7</ele>
        <time>2012-05-03T14:01:52Z</time>
      </trkpt>
      <trkpt lat="44.0806" lon="3.11054">
        <ele>761.4</ele>
        <time>2012-05-03T14:02:00Z</time>
      </trkpt>
      <trkpt lat="44.0806" lon="3.11065">
        <ele>760.5</ele>
        <time>2012-05-03T14:02:07Z</time>
      </trkpt>
      <trkpt lat="44.0806" lon="3.11067">
        <ele>760.4</ele>
        <time>2012-05-03T14:02:08Z</time>
      </trkpt>
      <trkpt lat="44.0806" lon="3.11087">
        <ele>760.8</ele>
        <time>2012-05-03T14:02:19Z</time>
      </trkpt>
      <trkpt lat="44.0806" lon="3.11099">
        <ele>760.2</ele>
        <time>2012-05-03T14:02:25Z</time>
      </trkpt>
      <trkpt lat="44.08061" lon="3.11111">
        <ele>758.8</ele>
        <time>2012-05-03T14:02:31Z</time>
      </trkpt>
      <trkpt lat="44.08059" lon="3.11123">
        <ele>759.4</ele>
        <time>2012-05-03T14:02:39Z</time>
      </trkpt>
      <trkpt lat="44.08055" lon="3.11133">
        <ele>759.7</ele>
        <time>2012-05-03T14:02:47Z</time>
      </trkpt>
      <trkpt lat="44.08052" lon="3.11145">
        <ele>760</ele>
        <time>2012-05-03T14:02:53Z</time>
      </trkpt>
      <trkpt lat="44.0805" lon="3.11155">
        <ele>760.8</ele>
        <time>2012-05-03T14:02:59Z</time>
      </trkpt>
      <trkpt lat="44.08047" lon="3.11166">
        <ele>761</ele>
        <time>2012-05-03T14:03:05Z</time>
      </trkpt>
      <trkpt lat="44.08043" lon="3.11176">
        <ele>762.6</ele>
        <time>2012-05-03T14:03:12Z</time>
      </trkpt>
      <trkpt lat="44.08043" lon="3.11178">
        <ele>761.9</ele>
        <time>2012-05-03T14:03:13Z</time>
      </trkpt>
      <trkpt lat="44.08036" lon="3.11196">
        <ele>761</ele>
        <time>2012-05-03T14:03:23Z</time>
      </trkpt>
      <trkpt lat="44.08033" lon="3.11207">
        <ele>759.4</ele>
        <time>2012-05-03T14:03:29Z</time>
      </trkpt>
      <trkpt lat="44.08028" lon="3.11217">
        <ele>758.8</ele>
        <time>2012-05-03T14:03:36Z</time>
      </trkpt>
      <trkpt lat="44.08027" lon="3.11228">
        <ele>759.7</ele>
        <time>2012-05-03T14:03:44Z</time>
      </trkpt>
      <trkpt lat="44.08022" lon="3.11237">
        <ele>758.2</ele>
        <time>2012-05-03T14:03:51Z</time>
      </trkpt>
      <trkpt lat="44.08017" lon="3.11247">
        <ele>757.4</ele>
        <time>2012-05-03T14:03:58Z</time>
      </trkpt>
      <trkpt lat="44.08012" lon="3.11256">
        <ele>756.9</ele>
        <time>2012-05-03T14:04:05Z</time>
      </trkpt>
      <trkpt lat="44.08007" lon="3.11265">
        <ele>757.3</ele>
        <time>2012-05-03T14:04:12Z</time>
      </trkpt>
      <trkpt lat="44.08002" lon="3.11273">
        <ele>756.5</ele>
        <time>2012-05-03T14:04:18Z</time>
      </trkpt>
      <trkpt lat="44.08001" lon="3.11274">
        <ele>756.6</ele>
        <time>2012-05-03T14:04:19Z</time>
      </trkpt>
      <trkpt lat="44.07991" lon="3.11291">
        <ele>757.9</ele>
        <time>2012-05-03T14:04:31Z</time>
      </trkpt>
      <trkpt lat="44.07985" lon="3.11299">
        <ele>759.4</ele>
        <time>2012-05-03T14:04:39Z</time>
      </trkpt>
      <trkpt lat="44.07979" lon="3.11307">
        <ele>758.8</ele>
        <time>2012-05-03T14:04:46Z</time>
      </trkpt>
      <trkpt lat="44.07972" lon="3.11314">
        <ele>758.4</ele>
        <time>2012-05-03T14:04:54Z</time>
      </trkpt>
      <trkpt lat="44.07965" lon="3.11319">
        <ele>757.9</ele>
        <time>2012-05-03T14:05:01Z</time>
      </trkpt>
      <trkpt lat="44.07959" lon="3.11326">
        <ele>758.3</ele>
        <time>2012-05-03T14:05:07Z</time>
      </trkpt>
      <trkpt lat="44.07954" lon="3.11336">
        <ele>757.2</ele>
        <time>2012-05-03T14:05:13Z</time>
      </trkpt>
      <trkpt lat="44.0795" lon="3.11345">
        <ele>757</ele>
        <time>2012-05-03T14:05:19Z</time>
      </trkpt>
      <trkpt lat="44.07949" lon="3.11347">
        <ele>756.8</ele>
        <time>2012-05-03T14:05:20Z</time>
      </trkpt>
      <trkpt lat="44.07946" lon="3.11368">
        <ele>756.4</ele>
        <time>2012-05-03T14:05:31Z</time>
      </trkpt>
      <trkpt lat="44.07948" lon="3.1138">
        <ele>756</ele>
        <time>2012-05-03T14:05:37Z</time>
      </trkpt>
      <trkpt lat="44.07948" lon="3.11392">
        <ele>757.3</ele>
        <time>2012-05-03T14:05:44Z</time>
      </trkpt>
      <trkpt lat="44.07946" lon="3.11402">
        <ele>757.2</ele>
        <time>2012-05-03T14:05:50Z</time>
      </trkpt>
      <trkpt lat="44.07944" lon="3.11413">
        <ele>757.3</ele>
        <time>2012-05-03T14:05:56Z</time>
      </trkpt>
      <trkpt lat="44.07941" lon="3.11422">
        <ele>757.5</ele>
        <time>2012-05-03T14:06:02Z</time>
      </trkpt>
      <trkpt lat="44.07938" lon="3.11434">
        <ele>757.9</ele>
        <time>2012-05-03T14:06:09Z</time>
      </trkpt>
      <trkpt lat="44.07935" lon="3.11444">
        <ele>758.1</ele>
        <time>2012-05-03T14:06:15Z</time>
      </trkpt>
      <trkpt lat="44.07932" lon="3.11455">
        <ele>757.8</ele>
        <time>2012-05-03T14:06:22Z</time>
      </trkpt>
      <trkpt lat="44.07931" lon="3.11457">
        <ele>758.1</ele>
        <time>2012-05-03T14:06:23Z</time>
      </trkpt>
      <trkpt lat="44.0792" lon="3.11472">
        <ele>755.5</ele>
        <time>2012-05-03T14:06:49Z</time>
      </trkpt>
      <trkpt lat="44.07919" lon="3.11483">
        <ele>756.2</ele>
        <time>2012-05-03T14:06:56Z</time>
      </trkpt>
      <trkpt lat="44.07921" lon="3.11494">
        <ele>755.2</ele>
        <time>2012-05-03T14:07:02Z</time>
      </trkpt>
      <trkpt lat="44.07922" lon="3.11506">
        <ele>753.4</ele>
        <time>2012-05-03T14:07:08Z</time>
      </trkpt>
      <trkpt lat="44.07923" lon="3.11519">
        <ele>753.9</ele>
        <time>2012-05-03T14:07:15Z</time>
      </trkpt>
      <trkpt lat="44.07926" lon="3.1153">
        <ele>753.2</ele>
        <time>2012-05-03T14:07:21Z</time>
      </trkpt>
      <trkpt lat="44.07927" lon="3.11541">
        <ele>753.8</ele>
        <time>2012-05-03T14:07:27Z</time>
      </trkpt>
      <trkpt lat="44.07927" lon="3.11543">
        <ele>753.7</ele>
        <time>2012-05-03T14:07:28Z</time>
      </trkpt>
      <trkpt lat="44.0793" lon="3.11564">
        <ele>755.8</ele>
        <time>2012-05-03T14:07:41Z</time>
      </trkpt>
      <trkpt lat="44.07931" lon="3.11575">
        <ele>756.2</ele>
        <time>2012-05-03T14:07:47Z</time>
      </trkpt>
      <trkpt lat="44.07934" lon="3.11586">
        <ele>756.1</ele>
        <time>2012-05-03T14:07:53Z</time>
      </trkpt>
      <trkpt lat="44.07936" lon="3.11597">
        <ele>756</ele>
        <time>2012-05-03T14:07:59Z</time>
      </trkpt>
      <trkpt lat="44.07938" lon="3.11608">
        <ele>756.2</ele>
        <time>2012-05-03T14:08:05Z</time>
      </trkpt>
      <trkpt lat="44.07942" lon="3.11618">
        <ele>755.2</ele>
        <time>2012-05-03T14:08:11Z</time>
      </trkpt>
      <trkpt lat="44.07944" lon="3.1163">
        <ele>755.4</ele>
        <time>2012-05-03T14:08:17Z</time>
      </trkpt>
      <trkpt lat="44.07946" lon="3.11642">
        <ele>755</ele>
        <time>2012-05-03T14:08:23Z</time>
      </trkpt>
      <trkpt lat="44.07946" lon="3.11653">
        <ele>754.6</ele>
        <time>2012-05-03T14:08:29Z</time>
      </trkpt>
      <trkpt lat="44.07945" lon="3.11655">
        <ele>754.6</ele>
        <time>2012-05-03T14:08:30Z</time>
      </trkpt>
      <trkpt lat="44.07946" lon="3.11676">
        <ele>754.7</ele>
        <time>2012-05-03T14:08:40Z</time>
      </trkpt>
      <trkpt lat="44.07948" lon="3.11687">
        <ele>756</ele>
        <time>2012-05-03T14:08:45Z</time>
      </trkpt>
      <trkpt lat="44.07949" lon="3.11699">
        <ele>755.2</ele>
        <time>2012-05-03T14:08:51Z</time>
      </trkpt>
      <trkpt lat="44.07949" lon="3.1171">
        <ele>754.9</ele>
        <time>2012-05-03T14:08:56Z</time>
      </trkpt>
      <trkpt lat="44.07952" lon="3.1172">
        <ele>754.7</ele>
        <time>2012-05-03T14:09:01Z</time>
      </trkpt>
      <trkpt lat="44.07953" lon="3.1173">
        <ele>754.1</ele>
        <time>2012-05-03T14:09:06Z</time>
      </trkpt>
      <trkpt lat="44.07952" lon="3.11742">
        <ele>754.9</ele>
        <time>2012-05-03T14:09:12Z</time>
      </trkpt>
      <trkpt lat="44.07953" lon="3.11753">
        <ele>754.9</ele>
        <time>2012-05-03T14:09:17Z</time>
      </trkpt>
      <trkpt lat="44.07954" lon="3.11765">
        <ele>755.3</ele>
        <time>2012-05-03T14:09:23Z</time>
      </trkpt>
      <trkpt lat="44.07956" lon="3.11776">
        <ele>753.9</ele>
        <time>2012-05-03T14:09:28Z</time>
      </trkpt>
      <trkpt lat="44.07958" lon="3.11785">
        <ele>753.9</ele>
        <time>2012-05-03T14:09:33Z</time>
      </trkpt>
      <trkpt lat="44.07959" lon="3.11788">
        <ele>754</ele>
        <time>2012-05-03T14:09:34Z</time>
      </trkpt>
      <trkpt lat="44.07963" lon="3.11809">
        <ele>754.2</ele>
        <time>2012-05-03T14:09:45Z</time>
      </trkpt>
      <trkpt lat="44.07966" lon="3.11819">
        <ele>754.6</ele>
        <time>2012-05-03T14:09:51Z</time>
      </trkpt>
      <trkpt lat="44.07968" lon="3.11831">
        <ele>753.9</ele>
        <time>2012-05-03T14:09:57Z</time>
      </trkpt>
      <trkpt lat="44.07969" lon="3.11842">
        <ele>754.3</ele>
        <time>2012-05-03T14:10:03Z</time>
      </trkpt>
      <trkpt lat="44.07971" lon="3.11853">
        <ele>754.1</ele>
        <time>2012-05-03T14:10:09Z</time>
      </trkpt>
      <trkpt lat="44.07973" lon="3.11863">
        <ele>753.6</ele>
        <time>2012-05-03T14:10:14Z</time>
      </trkpt>
      <trkpt lat="44.07975" lon="3.11874">
        <ele>751.9</ele>
        <time>2012-05-03T14:10:20Z</time>
      </trkpt>
      <trkpt lat="44.07976" lon="3.11884">
        <ele>753.4</ele>
        <time>2012-05-03T14:10:26Z</time>
      </trkpt>
      <trkpt lat="44.07977" lon="3.11895">
        <ele>753.5</ele>
        <time>2012-05-03T14:10:32Z</time>
      </trkpt>
      <trkpt lat="44.07979" lon="3.11906">
        <ele>753.2</ele>
        <time>2012-05-03T14:10:38Z</time>
      </trkpt>
      <trkpt lat="44.07979" lon="3.11908">
        <ele>752.9</ele>
        <time>2012-05-03T14:10:39Z</time>
      </trkpt>
      <trkpt lat="44.07983" lon="3.11927">
        <ele>753.9</ele>
        <time>2012-05-03T14:10:50Z</time>
      </trkpt>
      <trkpt lat="44.07985" lon="3.11938">
        <ele>753.2</ele>
        <time>2012-05-03T14:10:56Z</time>
      </trkpt>
      <trkpt lat="44.07986" lon="3.1195">
        <ele>753.3</ele>
        <time>2012-05-03T14:11:02Z</time>
      </trkpt>
      <trkpt lat="44.07987" lon="3.11962">
        <ele>753.3</ele>
        <time>2012-05-03T14:11:08Z</time>
      </trkpt>
      <trkpt lat="44.0799" lon="3.11974">
        <ele>753.7</ele>
        <time>2012-05-03T14:11:14Z</time>
      </trkpt>
      <trkpt lat="44.07992" lon="3.11985">
        <ele>753.5</ele>
        <time>2012-05-03T14:11:20Z</time>
      </trkpt>
      <trkpt lat="44.07994" lon="3.11996">
        <ele>751.9</ele>
        <time>2012-05-03T14:11:26Z</time>
      </trkpt>
      <trkpt lat="44.07996" lon="3.12008">
        <ele>753.4</ele>
        <time>2012-05-03T14:11:32Z</time>
      </trkpt>
      <trkpt lat="44.07996" lon="3.12018">
        <ele>753.6</ele>
        <time>2012-05-03T14:11:37Z</time>
      </trkpt>
      <trkpt lat="44.07997" lon="3.12029">
        <ele>753.2</ele>
        <time>2012-05-03T14:11:42Z</time>
      </trkpt>
      <trkpt lat="44.07997" lon="3.12031">
        <ele>753.1</ele>
        <time>2012-05-03T14:11:43Z</time>
      </trkpt>
      <trkpt lat="44.08001" lon="3.12052">
        <ele>752.8</ele>
        <time>2012-05-03T14:11:54Z</time>
      </trkpt>
      <trkpt lat="44.08003" lon="3.12064">
        <ele>752.2</ele>
        <time>2012-05-03T14:12:00Z</time>
      </trkpt>
      <trkpt lat="44.08005" lon="3.12075">
        <ele>751.7</ele>
        <time>2012-05-03T14:12:06Z</time>
      </trkpt>
      <trkpt lat="44.08008" lon="3.12085">
        <ele>752.7</ele>
        <time>2012-05-03T14:12:12Z</time>
      </trkpt>
      <trkpt lat="44.0801" lon="3.12096">
        <ele>752.3</ele>
        <time>2012-05-03T14:12:18Z</time>
      </trkpt>
      <trkpt lat="44.08012" lon="3.12107">
        <ele>753.3</ele>
        <time>2012-05-03T14:12:24Z</time>
      </trkpt>
      <trkpt lat="44.08014" lon="3.12118">
        <ele>753</ele>
        <time>2012-05-03T14:12:30Z</time>
      </trkpt>
      <trkpt lat="44.08016" lon="3.12129">
        <ele>752.6</ele>
        <time>2012-05-03T14:12:36Z</time>
      </trkpt>
      <trkpt lat="44.08018" lon="3.12141">
        <ele>753</ele>
        <time>2012-05-03T14:12:44Z</time>
      </trkpt>
      <trkpt lat="44.08018" lon="3.12142">
        <ele>751.9</ele>
        <time>2012-05-03T14:12:45Z</time>
      </trkpt>
      <trkpt lat="44.08021" lon="3.12164">
        <ele>750.2</ele>
        <time>2012-05-03T14:13:25Z</time>
      </trkpt>
      <trkpt lat="44.08023" lon="3.12176">
        <ele>750.3</ele>
        <time>2012-05-03T14:13:33Z</time>
      </trkpt>
      <trkpt lat="44.08024" lon="3.12188">
        <ele>750</ele>
        <time>2012-05-03T14:13:41Z</time>
      </trkpt>
      <trkpt lat="44.08028" lon="3.12199">
        <ele>746.9</ele>
        <time>2012-05-03T14:14:44Z</time>
      </trkpt>
      <trkpt lat="44.08028" lon="3.122">
        <ele>746.1</ele>
        <time>2012-05-03T14:14:45Z</time>
      </trkpt>
      <trkpt lat="44.08029" lon="3.12221">
        <ele>745.6</ele>
        <time>2012-05-03T14:15:01Z</time>
      </trkpt>
      <trkpt lat="44.08032" lon="3.12233">
        <ele>745.2</ele>
        <time>2012-05-03T14:15:08Z</time>
      </trkpt>
      <trkpt lat="44.08034" lon="3.12243">
        <ele>744.9</ele>
        <time>2012-05-03T14:15:14Z</time>
      </trkpt>
      <trkpt lat="44.08037" lon="3.12255">
        <ele>744.3</ele>
        <time>2012-05-03T14:15:21Z</time>
      </trkpt>
      <trkpt lat="44.0804" lon="3.12266">
        <ele>744.1</ele>
        <time>2012-05-03T14:15:28Z</time>
      </trkpt>
      <trkpt lat="44.08039" lon="3.12277">
        <ele>743.6</ele>
        <time>2012-05-03T14:15:33Z</time>
      </trkpt>
      <trkpt lat="44.08041" lon="3.12289">
        <ele>743.6</ele>
        <time>2012-05-03T14:15:39Z</time>
      </trkpt>
      <trkpt lat="44.08043" lon="3.12301">
        <ele>743</ele>
        <time>2012-05-03T14:15:45Z</time>
      </trkpt>
      <trkpt lat="44.08044" lon="3.12302">
        <ele>742.5</ele>
        <time>2012-05-03T14:15:46Z</time>
      </trkpt>
      <trkpt lat="44.0805" lon="3.12322">
        <ele>744.6</ele>
        <time>2012-05-03T14:15:56Z</time>
      </trkpt>
      <trkpt lat="44.08053" lon="3.12331">
        <ele>745.6</ele>
        <time>2012-05-03T14:16:01Z</time>
      </trkpt>
      <trkpt lat="44.08058" lon="3.12341">
        <ele>745</ele>
        <time>2012-05-03T14:16:07Z</time>
      </trkpt>
      <trkpt lat="44.08063" lon="3.12349">
        <ele>745.9</ele>
        <time>2012-05-03T14:16:12Z</time>
      </trkpt>
      <trkpt lat="44.0807" lon="3.12357">
        <ele>746.3</ele>
        <time>2012-05-03T14:16:17Z</time>
      </trkpt>
      <trkpt lat="44.08077" lon="3.12365">
        <ele>746</ele>
        <time>2012-05-03T14:16:23Z</time>
      </trkpt>
      <trkpt lat="44.08082" lon="3.12372">
        <ele>744.7</ele>
        <time>2012-05-03T14:16:28Z</time>
      </trkpt>
      <trkpt lat="44.0809" lon="3.12378">
        <ele>744</ele>
        <time>2012-05-03T14:16:33Z</time>
      </trkpt>
      <trkpt lat="44.08096" lon="3.12384">
        <ele>745</ele>
        <time>2012-05-03T14:16:40Z</time>
      </trkpt>
      <trkpt lat="44.08103" lon="3.1239">
        <ele>744</ele>
        <time>2012-05-03T14:16:46Z</time>
      </trkpt>
      <trkpt lat="44.08104" lon="3.12391">
        <ele>744</ele>
        <time>2012-05-03T14:16:47Z</time>
      </trkpt>
      <trkpt lat="44.08117" lon="3.124">
        <ele>744.7</ele>
        <time>2012-05-03T14:16:57Z</time>
      </trkpt>
      <trkpt lat="44.08125" lon="3.12405">
        <ele>744.5</ele>
        <time>2012-05-03T14:17:03Z</time>
      </trkpt>
      <trkpt lat="44.08132" lon="3.12409">
        <ele>743.7</ele>
        <time>2012-05-03T14:17:08Z</time>
      </trkpt>
      <trkpt lat="44.0814" lon="3.12412">
        <ele>744.2</ele>
        <time>2012-05-03T14:17:13Z</time>
      </trkpt>
      <trkpt lat="44.08148" lon="3.12413">
        <ele>743.6</ele>
        <time>2012-05-03T14:17:19Z</time>
      </trkpt>
      <trkpt lat="44.08157" lon="3.12409">
        <ele>739.5</ele>
        <time>2012-05-03T14:17:37Z</time>
      </trkpt>
      <trkpt lat="44.08164" lon="3.12405">
        <ele>739</ele>
        <time>2012-05-03T14:17:44Z</time>
      </trkpt>
      <trkpt lat="44.08171" lon="3.12401">
        <ele>737.4</ele>
        <time>2012-05-03T14:17:51Z</time>
      </trkpt>
      <trkpt lat="44.08172" lon="3.124">
        <ele>737.3</ele>
        <time>2012-05-03T14:17:52Z</time>
      </trkpt>
      <trkpt lat="44.08184" lon="3.12385">
        <ele>737.5</ele>
        <time>2012-05-03T14:18:04Z</time>
      </trkpt>
      <trkpt lat="44.08189" lon="3.12376">
        <ele>736.8</ele>
        <time>2012-05-03T14:18:10Z</time>
      </trkpt>
      <trkpt lat="44.08194" lon="3.12367">
        <ele>736.4</ele>
        <time>2012-05-03T14:18:17Z</time>
      </trkpt>
      <trkpt lat="44.08199" lon="3.12358">
        <ele>736.5</ele>
        <time>2012-05-03T14:18:23Z</time>
      </trkpt>
      <trkpt lat="44.08203" lon="3.1235">
        <ele>735.9</ele>
        <time>2012-05-03T14:18:29Z</time>
      </trkpt>
      <trkpt lat="44.0821" lon="3.12342">
        <ele>736.4</ele>
        <time>2012-05-03T14:18:36Z</time>
      </trkpt>
      <trkpt lat="44.08218" lon="3.12338">
        <ele>736.8</ele>
        <time>2012-05-03T14:18:43Z</time>
      </trkpt>
      <trkpt lat="44.08227" lon="3.1234">
        <ele>737.2</ele>
        <time>2012-05-03T14:18:48Z</time>
      </trkpt>
      <trkpt lat="44.08234" lon="3.12344">
        <ele>737.2</ele>
        <time>2012-05-03T14:18:54Z</time>
      </trkpt>
      <trkpt lat="44.08235" lon="3.12345">
        <ele>737.1</ele>
        <time>2012-05-03T14:18:55Z</time>
      </trkpt>
      <trkpt lat="44.08242" lon="3.12358">
        <ele>736.1</ele>
        <time>2012-05-03T14:19:23Z</time>
      </trkpt>
      <trkpt lat="44.08242" lon="3.12358">
        <ele>736.1</ele>
        <time>2012-05-03T14:19:23Z</time>
      </trkpt>
    </trkseg>
  </trk>
</gpx>